sensor_id;sensor_type;location;lat;lon;timestamp;pressure;altitude;pressure_sealevel;temperature;humidity
32875;BME280;40468;42.128;24.750;2022-10-19T00:00:08;100325.56;;;9.70;50.03
32875;BME280;40468;42.128;24.750;2022-10-19T00:01:40;100334.06;;;9.75;50.00
32875;BME280;40468;42.128;24.750;2022-10-19T00:03:12;100332.28;;;9.76;49.87
32875;BME280;40468;42.128;24.750;2022-10-19T00:04:43;100328.94;;;9.72;50.06
32875;BME280;40468;42.128;24.750;2022-10-19T00:06:18;100330.78;;;9.70;49.98
32875;BME280;40468;42.128;24.750;2022-10-19T00:07:55;100333.50;;;9.66;49.92
32875;BME280;40468;42.128;24.750;2022-10-19T00:09:30;100332.72;;;9.64;50.05
32875;BME280;40468;42.128;24.750;2022-10-19T00:11:02;100326.75;;;9.60;49.96
32875;BME280;40468;42.128;24.750;2022-10-19T00:12:34;100319.13;;;9.55;50.00
32875;BME280;40468;42.128;24.750;2022-10-19T00:14:07;100314.72;;;9.57;50.10
32875;BME280;40468;42.128;24.750;2022-10-19T00:15:40;100319.97;;;9.56;49.95
32875;BME280;40468;42.128;24.750;2022-10-19T00:17:11;100320.81;;;9.56;50.04
32875;BME280;40468;42.128;24.750;2022-10-19T00:18:43;100316.53;;;9.55;50.23
32875;BME280;40468;42.128;24.750;2022-10-19T00:20:15;100310.63;;;9.50;50.08
32875;BME280;40468;42.128;24.750;2022-10-19T00:21:47;100307.38;;;9.44;50.24
32875;BME280;40468;42.128;24.750;2022-10-19T00:23:21;100305.72;;;9.41;50.29
32875;BME280;40468;42.128;24.750;2022-10-19T00:24:55;100300.63;;;9.38;50.39
32875;BME280;40468;42.128;24.750;2022-10-19T00:26:27;100302.44;;;9.34;50.43
32875;BME280;40468;42.128;24.750;2022-10-19T00:28:00;100298.13;;;9.35;50.34
32875;BME280;40468;42.128;24.750;2022-10-19T00:29:31;100292.13;;;9.33;50.58
32875;BME280;40468;42.128;24.750;2022-10-19T00:31:03;100299.16;;;9.29;50.58
32875;BME280;40468;42.128;24.750;2022-10-19T00:32:35;100292.25;;;9.28;50.62
32875;BME280;40468;42.128;24.750;2022-10-19T00:34:08;100288.88;;;9.26;50.57
32875;BME280;40468;42.128;24.750;2022-10-19T00:35:39;100292.34;;;9.25;50.74
32875;BME280;40468;42.128;24.750;2022-10-19T00:37:11;100287.16;;;9.25;50.56
32875;BME280;40468;42.128;24.750;2022-10-19T00:38:44;100291.50;;;9.25;50.70
32875;BME280;40468;42.128;24.750;2022-10-19T00:40:16;100285.50;;;9.23;50.73
32875;BME280;40468;42.128;24.750;2022-10-19T00:41:48;100278.56;;;9.23;50.57
32875;BME280;40468;42.128;24.750;2022-10-19T00:43:22;100279.34;;;9.25;50.44
32875;BME280;40468;42.128;24.750;2022-10-19T00:44:59;100278.47;;;9.26;50.33
32875;BME280;40468;42.128;24.750;2022-10-19T00:46:34;100275.91;;;9.25;50.54
32875;BME280;40468;42.128;24.750;2022-10-19T00:48:07;100277.63;;;9.26;50.31
32875;BME280;40468;42.128;24.750;2022-10-19T00:49:42;100268.13;;;9.25;50.49
32875;BME280;40468;42.128;24.750;2022-10-19T00:51:16;100266.34;;;9.25;50.58
32875;BME280;40468;42.128;24.750;2022-10-19T00:52:48;100266.34;;;9.25;50.53
32875;BME280;40468;42.128;24.750;2022-10-19T00:54:21;100250.88;;;9.22;50.33
32875;BME280;40468;42.128;24.750;2022-10-19T00:55:53;100262.03;;;9.26;50.49
32875;BME280;40468;42.128;24.750;2022-10-19T00:57:28;100261.16;;;9.25;50.47
32875;BME280;40468;42.128;24.750;2022-10-19T00:59:02;100247.31;;;9.25;50.34
32875;BME280;40468;42.128;24.750;2022-10-19T01:00:34;100250.84;;;9.24;50.44
32875;BME280;40468;42.128;24.750;2022-10-19T01:02:06;100250.78;;;9.25;50.32
32875;BME280;40468;42.128;24.750;2022-10-19T01:03:38;100246.44;;;9.26;50.43
32875;BME280;40468;42.128;24.750;2022-10-19T01:05:10;100248.97;;;9.27;50.21
32875;BME280;40468;42.128;24.750;2022-10-19T01:06:43;100246.38;;;9.27;50.20
32875;BME280;40468;42.128;24.750;2022-10-19T01:08:15;100242.09;;;9.26;50.31
32875;BME280;40468;42.128;24.750;2022-10-19T01:09:48;100241.25;;;9.26;50.35
32875;BME280;40468;42.128;24.750;2022-10-19T01:11:29;100241.25;;;9.26;50.25
32875;BME280;40468;42.128;24.750;2022-10-19T01:13:14;100230.16;;;9.21;50.05
32875;BME280;40468;42.128;24.750;2022-10-19T01:14:58;100236.19;;;9.21;50.15
32875;BME280;40468;42.128;24.750;2022-10-19T01:16:40;100233.59;;;9.21;50.34
32875;BME280;40468;42.128;24.750;2022-10-19T01:18:20;100237.09;;;9.20;50.16
32875;BME280;40468;42.128;24.750;2022-10-19T01:22:05;100228.38;;;9.21;50.22
32875;BME280;40468;42.128;24.750;2022-10-19T01:23:59;100223.22;;;9.20;50.01
32875;BME280;40468;42.128;24.750;2022-10-19T01:25:46;100227.47;;;9.22;50.25
32875;BME280;40468;42.128;24.750;2022-10-19T01:27:35;100226.59;;;9.23;50.05
32875;BME280;40468;42.128;24.750;2022-10-19T01:29:17;100225.72;;;9.23;50.36
32875;BME280;40468;42.128;24.750;2022-10-19T01:30:55;100218.81;;;9.23;50.14
32875;BME280;40468;42.128;24.750;2022-10-19T01:32:37;100219.69;;;9.22;50.14
32875;BME280;40468;42.128;24.750;2022-10-19T01:34:15;100201.09;;;9.08;50.19
32875;BME280;40468;42.128;24.750;2022-10-19T01:35:57;100214.50;;;9.22;50.03
32875;BME280;40468;42.128;24.750;2022-10-19T01:37:34;100213.66;;;9.22;50.30
32875;BME280;40468;42.128;24.750;2022-10-19T01:39:15;100199.19;;;9.13;50.03
32875;BME280;40468;42.128;24.750;2022-10-19T01:40:54;100210.09;;;9.24;50.20
32875;BME280;40468;42.128;24.750;2022-10-19T01:42:30;100208.41;;;9.23;50.32
32875;BME280;40468;42.128;24.750;2022-10-19T01:44:07;100206.69;;;9.22;50.35
32875;BME280;40468;42.128;24.750;2022-10-19T01:45:47;100187.06;;;9.14;50.10
32875;BME280;40468;42.128;24.750;2022-10-19T01:47:25;100216.97;;;9.25;50.26
32875;BME280;40468;42.128;24.750;2022-10-19T01:49:03;100212.69;;;9.24;50.19
32875;BME280;40468;42.128;24.750;2022-10-19T01:50:43;100209.19;;;9.25;50.22
32875;BME280;40468;42.128;24.750;2022-10-19T01:52:18;100208.34;;;9.25;50.26
32875;BME280;40468;42.128;24.750;2022-10-19T01:53:53;100203.16;;;9.25;50.30
32875;BME280;40468;42.128;24.750;2022-10-19T01:55:28;100207.53;;;9.23;50.24
32875;BME280;40468;42.128;24.750;2022-10-19T01:57:03;100206.69;;;9.22;50.33
32875;BME280;40468;42.128;24.750;2022-10-19T01:58:38;100211.84;;;9.24;50.44
32875;BME280;40468;42.128;24.750;2022-10-19T02:00:12;100208.41;;;9.23;50.37
32875;BME280;40468;42.128;24.750;2022-10-19T02:01:46;100198.91;;;9.22;50.44
32875;BME280;40468;42.128;24.750;2022-10-19T02:03:21;100203.25;;;9.22;50.51
32875;BME280;40468;42.128;24.750;2022-10-19T02:04:55;100181.97;;;9.10;50.49
32875;BME280;40468;42.128;24.750;2022-10-19T02:06:28;100197.22;;;9.21;50.46
32875;BME280;40468;42.128;24.750;2022-10-19T02:08:01;100199.75;;;9.23;50.46
32875;BME280;40468;42.128;24.750;2022-10-19T02:09:35;100200.66;;;9.22;50.61
32875;BME280;40468;42.128;24.750;2022-10-19T02:11:07;100195.44;;;9.22;50.60
32875;BME280;40468;42.128;24.750;2022-10-19T02:12:40;100186.84;;;9.20;50.51
32875;BME280;40468;42.128;24.750;2022-10-19T02:14:14;100196.41;;;9.19;50.54
32875;BME280;40468;42.128;24.750;2022-10-19T02:15:50;100169.91;;;9.08;50.43
32875;BME280;40468;42.128;24.750;2022-10-19T02:17:26;100185.22;;;9.17;50.46
32875;BME280;40468;42.128;24.750;2022-10-19T02:19:01;100186.94;;;9.17;50.32
32875;BME280;40468;42.128;24.750;2022-10-19T02:20:34;100186.06;;;9.18;50.23
32875;BME280;40468;42.128;24.750;2022-10-19T02:22:06;100181.81;;;9.15;50.62
32875;BME280;40468;42.128;24.750;2022-10-19T02:23:38;100180.16;;;9.13;50.48
32875;BME280;40468;42.128;24.750;2022-10-19T02:25:09;100188.97;;;9.08;50.61
32875;BME280;40468;42.128;24.750;2022-10-19T02:26:41;100175.19;;;9.06;50.68
32875;BME280;40468;42.128;24.750;2022-10-19T02:28:14;100179.47;;;9.07;50.58
32875;BME280;40468;42.128;24.750;2022-10-19T02:29:46;100171.75;;;9.06;50.62
32875;BME280;40468;42.128;24.750;2022-10-19T02:31:18;100178.63;;;9.07;50.74
32875;BME280;40468;42.128;24.750;2022-10-19T02:32:50;100174.34;;;9.06;50.60
32875;BME280;40468;42.128;24.750;2022-10-19T02:34:22;100175.28;;;9.03;50.89
32875;BME280;40468;42.128;24.750;2022-10-19T02:35:55;100169.28;;;9.01;50.86
32875;BME280;40468;42.128;24.750;2022-10-19T02:37:26;100171.94;;;9.00;50.63
32875;BME280;40468;42.128;24.750;2022-10-19T02:38:58;100176.31;;;8.98;50.70
32875;BME280;40468;42.128;24.750;2022-10-19T02:40:35;100169.44;;;8.97;50.87
32875;BME280;40468;42.128;24.750;2022-10-19T02:42:11;100166.94;;;8.94;50.80
32875;BME280;40468;42.128;24.750;2022-10-19T02:43:49;100172.25;;;8.91;51.01
32875;BME280;40468;42.128;24.750;2022-10-19T02:45:25;100168.84;;;8.88;50.89
32875;BME280;40468;42.128;24.750;2022-10-19T02:47:01;100172.38;;;8.86;50.96
32875;BME280;40468;42.128;24.750;2022-10-19T02:48:35;100162.06;;;8.84;50.94
32875;BME280;40468;42.128;24.750;2022-10-19T02:50:10;100163.84;;;8.82;51.03
32875;BME280;40468;42.128;24.750;2022-10-19T02:51:56;100164.69;;;8.83;50.87
32875;BME280;40468;42.128;24.750;2022-10-19T02:53:27;100164.78;;;8.80;51.22
32875;BME280;40468;42.128;24.750;2022-10-19T02:54:59;100157.91;;;8.79;50.91
32875;BME280;40468;42.128;24.750;2022-10-19T02:56:32;100151.84;;;8.78;50.85
32875;BME280;40468;42.128;24.750;2022-10-19T02:58:04;100151.91;;;8.77;50.95
32875;BME280;40468;42.128;24.750;2022-10-19T02:59:35;100153.59;;;8.78;50.95
32875;BME280;40468;42.128;24.750;2022-10-19T03:01:06;100166.56;;;8.78;50.94
32875;BME280;40468;42.128;24.750;2022-10-19T03:02:38;100164.13;;;8.73;51.06
32875;BME280;40468;42.128;24.750;2022-10-19T03:04:10;100153.75;;;8.73;50.96
32875;BME280;40468;42.128;24.750;2022-10-19T03:05:43;100157.28;;;8.71;51.08
32875;BME280;40468;42.128;24.750;2022-10-19T03:07:17;100151.38;;;8.65;51.13
32875;BME280;40468;42.128;24.750;2022-10-19T03:08:50;100154.16;;;8.61;50.93
32875;BME280;40468;42.128;24.750;2022-10-19T03:10:22;100154.34;;;8.55;51.29
32875;BME280;40468;42.128;24.750;2022-10-19T03:11:54;100151.88;;;8.50;51.32
32875;BME280;40468;42.128;24.750;2022-10-19T03:13:26;100157.19;;;8.46;51.35
32875;BME280;40468;42.128;24.750;2022-10-19T03:14:57;100145.19;;;8.43;51.34
32875;BME280;40468;42.128;24.750;2022-10-19T03:16:29;100151.25;;;8.42;51.40
32875;BME280;40468;42.128;24.750;2022-10-19T03:18:01;100149.59;;;8.39;51.41
32875;BME280;40468;42.128;24.750;2022-10-19T03:19:33;100143.59;;;8.37;51.49
32875;BME280;40468;42.128;24.750;2022-10-19T03:21:09;100153.16;;;8.35;51.53
32875;BME280;40468;42.128;24.750;2022-10-19T03:22:41;100140.28;;;8.32;51.49
32875;BME280;40468;42.128;24.750;2022-10-19T03:24:13;100138.50;;;8.34;51.57
32875;BME280;40468;42.128;24.750;2022-10-19T03:25:44;100143.72;;;8.33;51.44
32875;BME280;40468;42.128;24.750;2022-10-19T03:27:16;100142.81;;;8.34;51.51
32875;BME280;40468;42.128;24.750;2022-10-19T03:28:48;100145.41;;;8.34;51.51
32875;BME280;40468;42.128;24.750;2022-10-19T03:30:19;100138.59;;;8.31;51.68
32875;BME280;40468;42.128;24.750;2022-10-19T03:31:50;100131.78;;;8.27;51.81
32875;BME280;40468;42.128;24.750;2022-10-19T03:33:22;100142.03;;;8.32;51.67
32875;BME280;40468;42.128;24.750;2022-10-19T03:34:55;100138.53;;;8.33;51.72
32875;BME280;40468;42.128;24.750;2022-10-19T03:36:30;100141.94;;;8.35;51.66
32875;BME280;40468;42.128;24.750;2022-10-19T03:38:02;100139.38;;;8.33;51.69
32875;BME280;40468;42.128;24.750;2022-10-19T03:39:34;100141.94;;;8.35;51.70
32875;BME280;40468;42.128;24.750;2022-10-19T03:41:06;100137.63;;;8.34;51.65
32875;BME280;40468;42.128;24.750;2022-10-19T03:42:37;100132.50;;;8.32;51.73
32875;BME280;40468;42.128;24.750;2022-10-19T03:44:10;100137.59;;;8.35;51.78
32875;BME280;40468;42.128;24.750;2022-10-19T03:45:44;100140.19;;;8.35;51.83
32875;BME280;40468;42.128;24.750;2022-10-19T03:47:16;100135.91;;;8.34;51.84
32875;BME280;40468;42.128;24.750;2022-10-19T03:48:48;100133.31;;;8.34;51.83
32875;BME280;40468;42.128;24.750;2022-10-19T03:50:20;100133.25;;;8.36;51.89
32875;BME280;40468;42.128;24.750;2022-10-19T03:51:54;100128.06;;;8.36;51.87
32875;BME280;40468;42.128;24.750;2022-10-19T03:53:25;100127.31;;;8.32;52.02
32875;BME280;40468;42.128;24.750;2022-10-19T03:54:56;100133.44;;;8.30;52.06
32875;BME280;40468;42.128;24.750;2022-10-19T03:56:29;100127.34;;;8.31;51.94
32875;BME280;40468;42.128;24.750;2022-10-19T03:58:01;100129.09;;;8.30;52.17
32875;BME280;40468;42.128;24.750;2022-10-19T03:59:33;100126.56;;;8.29;52.11
32875;BME280;40468;42.128;24.750;2022-10-19T04:01:06;100130.94;;;8.27;52.21
32875;BME280;40468;42.128;24.750;2022-10-19T04:02:38;100128.53;;;8.20;52.23
32875;BME280;40468;42.128;24.750;2022-10-19T04:04:11;100129.56;;;8.15;52.30
32875;BME280;40468;42.128;24.750;2022-10-19T04:05:44;100135.84;;;8.08;52.39
32875;BME280;40468;42.128;24.750;2022-10-19T04:07:17;100122.09;;;8.04;52.46
32875;BME280;40468;42.128;24.750;2022-10-19T04:08:49;100122.19;;;8.01;52.60
32875;BME280;40468;42.128;24.750;2022-10-19T04:10:19;100129.09;;;8.02;52.58
32875;BME280;40468;42.128;24.750;2022-10-19T04:11:52;100128.16;;;8.05;52.49
32875;BME280;40468;42.128;24.750;2022-10-19T04:13:24;100123.84;;;8.04;52.38
32875;BME280;40468;42.128;24.750;2022-10-19T04:14:54;100121.25;;;8.04;52.50
32875;BME280;40468;42.128;24.750;2022-10-19T04:16:28;100122.19;;;8.01;52.40
32875;BME280;40468;42.128;24.750;2022-10-19T04:18:01;100120.53;;;7.98;52.67
32875;BME280;40468;42.128;24.750;2022-10-19T04:19:33;100121.34;;;8.01;52.91
32875;BME280;40468;42.128;24.750;2022-10-19T04:21:05;100120.50;;;8.00;52.90
32875;BME280;40468;42.128;24.750;2022-10-19T04:22:38;100118.72;;;8.02;52.84
32875;BME280;40468;42.128;24.750;2022-10-19T04:24:11;100114.47;;;8.00;52.97
32875;BME280;40468;42.128;24.750;2022-10-19T04:25:44;100121.41;;;7.99;52.92
32875;BME280;40468;42.128;24.750;2022-10-19T04:27:14;100112.81;;;7.95;52.85
32875;BME280;40468;42.128;24.750;2022-10-19T04:28:46;100111.03;;;7.97;52.95
32875;BME280;40468;42.128;24.750;2022-10-19T04:30:17;100104.19;;;7.96;53.04
32875;BME280;40468;42.128;24.750;2022-10-19T04:31:50;100107.63;;;7.95;53.00
32875;BME280;40468;42.128;24.750;2022-10-19T04:33:22;100113.78;;;7.93;53.23
32875;BME280;40468;42.128;24.750;2022-10-19T04:34:53;100110.31;;;7.92;53.26
32875;BME280;40468;42.128;24.750;2022-10-19T04:36:25;100110.41;;;7.89;53.26
32875;BME280;40468;42.128;24.750;2022-10-19T04:37:58;100110.41;;;7.89;53.38
32875;BME280;40468;42.128;24.750;2022-10-19T04:39:30;100106.13;;;7.88;53.25
32875;BME280;40468;42.128;24.750;2022-10-19T04:41:04;100101.88;;;7.86;53.40
32875;BME280;40468;42.128;24.750;2022-10-19T04:42:36;100103.63;;;7.85;53.43
32875;BME280;40468;42.128;24.750;2022-10-19T04:44:08;100093.28;;;7.84;53.43
32875;BME280;40468;42.128;24.750;2022-10-19T04:45:40;100097.72;;;7.80;53.48
32875;BME280;40468;42.128;24.750;2022-10-19T04:47:12;100098.66;;;7.78;53.46
32875;BME280;40468;42.128;24.750;2022-10-19T04:48:45;100100.47;;;7.75;53.54
32875;BME280;40468;42.128;24.750;2022-10-19T04:50:17;100093.03;;;7.63;53.45
32875;BME280;40468;42.128;24.750;2022-10-19T04:51:49;100094.84;;;7.60;53.71
32875;BME280;40468;42.128;24.750;2022-10-19T04:53:22;100087.03;;;7.61;53.66
32875;BME280;40468;42.128;24.750;2022-10-19T04:54:54;100087.81;;;7.65;53.77
32875;BME280;40468;42.128;24.750;2022-10-19T04:56:26;100084.28;;;7.67;53.72
32875;BME280;40468;42.128;24.750;2022-10-19T04:58:00;100084.84;;;7.77;53.87
32875;BME280;40468;42.128;24.750;2022-10-19T04:59:32;100088.88;;;7.87;53.79
32875;BME280;40468;42.128;24.750;2022-10-19T05:01:07;100087.91;;;7.91;53.53
32875;BME280;40468;42.128;24.750;2022-10-19T05:02:42;100070.78;;;7.86;53.53
32875;BME280;40468;42.128;24.750;2022-10-19T05:04:13;100092.09;;;7.95;53.35
32875;BME280;40468;42.128;24.750;2022-10-19T05:05:45;100092.91;;;7.97;53.31
32875;BME280;40468;42.128;24.750;2022-10-19T05:07:17;100085.13;;;7.97;53.32
32875;BME280;40468;42.128;24.750;2022-10-19T05:08:50;100091.16;;;7.98;53.14
32875;BME280;40468;42.128;24.750;2022-10-19T05:10:22;100088.63;;;7.96;53.36
32875;BME280;40468;42.128;24.750;2022-10-19T05:11:54;100085.97;;;7.98;53.22
32875;BME280;40468;42.128;24.750;2022-10-19T05:13:26;100082.53;;;7.97;53.17
32875;BME280;40468;42.128;24.750;2022-10-19T05:14:58;100089.50;;;7.95;53.16
32875;BME280;40468;42.128;24.750;2022-10-19T05:16:30;100088.66;;;7.95;53.20
32875;BME280;40468;42.128;24.750;2022-10-19T05:18:01;100086.88;;;7.97;53.13
32875;BME280;40468;42.128;24.750;2022-10-19T05:19:33;100086.81;;;7.98;52.97
32875;BME280;40468;42.128;24.750;2022-10-19T05:21:07;100085.97;;;7.98;53.18
32875;BME280;40468;42.128;24.750;2022-10-19T05:22:39;100082.50;;;7.99;53.04
32875;BME280;40468;42.128;24.750;2022-10-19T05:24:13;100078.97;;;8.02;53.00
32875;BME280;40468;42.128;24.750;2022-10-19T05:25:45;100084.94;;;8.04;53.26
32875;BME280;40468;42.128;24.750;2022-10-19T05:27:17;100088.28;;;8.07;53.48
32875;BME280;40468;42.128;24.750;2022-10-19T05:28:49;100092.44;;;8.13;53.03
32875;BME280;40468;42.128;24.750;2022-10-19T05:30:25;100092.31;;;8.17;52.91
32875;BME280;40468;42.128;24.750;2022-10-19T05:31:57;100090.56;;;8.18;52.87
32875;BME280;40468;42.128;24.750;2022-10-19T05:33:32;100090.38;;;8.24;52.91
32875;BME280;40468;42.128;24.750;2022-10-19T05:35:04;100090.22;;;8.29;52.93
32875;BME280;40468;42.128;24.750;2022-10-19T05:36:37;100097.81;;;8.35;52.75
32875;BME280;40468;42.128;24.750;2022-10-19T05:38:10;100100.34;;;8.36;52.70
32875;BME280;40468;42.128;24.750;2022-10-19T05:39:43;100094.25;;;8.39;52.67
32875;BME280;40468;42.128;24.750;2022-10-19T05:41:15;100100.09;;;8.46;52.56
32875;BME280;40468;42.128;24.750;2022-10-19T05:42:47;100096.44;;;8.53;52.67
32875;BME280;40468;42.128;24.750;2022-10-19T05:44:21;100082.59;;;8.52;52.64
32875;BME280;40468;42.128;24.750;2022-10-19T05:45:53;100096.44;;;8.79;52.76
32875;BME280;40468;42.128;24.750;2022-10-19T05:47:24;100094.91;;;8.99;52.57
32875;BME280;40468;42.128;24.750;2022-10-19T05:48:57;100098.34;;;9.24;52.22
32875;BME280;40468;42.128;24.750;2022-10-19T05:50:29;100098.41;;;9.48;51.70
32875;BME280;40468;42.128;24.750;2022-10-19T05:52:01;100093.13;;;9.73;51.57
32875;BME280;40468;42.128;24.750;2022-10-19T05:53:34;100090.97;;;10.08;50.99
32875;BME280;40468;42.128;24.750;2022-10-19T05:55:08;100092.66;;;10.54;50.01
32875;BME280;40468;42.128;24.750;2022-10-19T05:56:40;100098.09;;;11.11;48.77
32875;BME280;40468;42.128;24.750;2022-10-19T05:58:13;100098.41;;;11.83;47.82
32875;BME280;40468;42.128;24.750;2022-10-19T05:59:43;100097.03;;;12.68;46.05
32875;BME280;40468;42.128;24.750;2022-10-19T06:01:16;100093.53;;;13.54;44.68
32875;BME280;40468;42.128;24.750;2022-10-19T06:02:48;100091.31;;;14.43;42.95
32875;BME280;40468;42.128;24.750;2022-10-19T06:04:20;100098.63;;;15.29;41.78
32875;BME280;40468;42.128;24.750;2022-10-19T06:05:53;100088.28;;;16.11;40.37
32875;BME280;40468;42.128;24.750;2022-10-19T06:07:25;100094.38;;;16.93;38.88
32875;BME280;40468;42.128;24.750;2022-10-19T06:08:57;100083.88;;;17.70;37.55
32875;BME280;40468;42.128;24.750;2022-10-19T06:10:30;100087.69;;;18.39;36.55
32875;BME280;40468;42.128;24.750;2022-10-19T06:12:02;100088.09;;;19.05;35.27
32875;BME280;40468;42.128;24.750;2022-10-19T06:13:34;100071.03;;;19.67;34.26
32875;BME280;40468;42.128;24.750;2022-10-19T06:15:07;100082.91;;;20.39;33.29
32875;BME280;40468;42.128;24.750;2022-10-19T06:16:39;100081.34;;;21.01;32.29
32875;BME280;40468;42.128;24.750;2022-10-19T06:18:12;100082.00;;;21.66;31.40
32875;BME280;40468;42.128;24.750;2022-10-19T06:19:44;100073.63;;;22.11;30.80
32875;BME280;40468;42.128;24.750;2022-10-19T06:21:17;100085.41;;;22.28;29.82
32875;BME280;40468;42.128;24.750;2022-10-19T06:22:50;100085.53;;;22.26;29.40
32875;BME280;40468;42.128;24.750;2022-10-19T06:24:22;100085.41;;;22.37;29.23
32875;BME280;40468;42.128;24.750;2022-10-19T06:25:55;100086.41;;;22.56;28.77
32875;BME280;40468;42.128;24.750;2022-10-19T06:27:27;100083.44;;;22.88;28.68
32875;BME280;40468;42.128;24.750;2022-10-19T06:29:00;100088.81;;;23.45;28.03
32875;BME280;40468;42.128;24.750;2022-10-19T06:30:32;100075.69;;;24.08;27.57
32875;BME280;40468;42.128;24.750;2022-10-19T06:32:04;100083.81;;;24.70;26.79
32875;BME280;40468;42.128;24.750;2022-10-19T06:33:38;100075.94;;;25.12;25.86
32875;BME280;40468;42.128;24.750;2022-10-19T06:35:10;100070.06;;;25.61;25.45
32875;BME280;40468;42.128;24.750;2022-10-19T06:36:42;100072.56;;;25.97;24.77
32875;BME280;40468;42.128;24.750;2022-10-19T06:38:13;100065.97;;;26.25;24.22
32875;BME280;40468;42.128;24.750;2022-10-19T06:39:44;100064.06;;;26.60;23.62
32875;BME280;40468;42.128;24.750;2022-10-19T06:41:18;100070.69;;;26.97;23.20
32875;BME280;40468;42.128;24.750;2022-10-19T06:42:50;100067.16;;;27.29;22.70
32875;BME280;40468;42.128;24.750;2022-10-19T06:44:21;100062.63;;;27.46;22.18
32875;BME280;40468;42.128;24.750;2022-10-19T06:45:54;100060.56;;;27.56;21.98
32875;BME280;40468;42.128;24.750;2022-10-19T06:47:26;100065.50;;;27.76;21.77
32875;BME280;40468;42.128;24.750;2022-10-19T06:49:02;100054.97;;;27.74;21.38
32875;BME280;40468;42.128;24.750;2022-10-19T06:50:34;100058.34;;;27.68;21.31
32875;BME280;40468;42.128;24.750;2022-10-19T06:52:05;100067.09;;;27.54;21.58
32875;BME280;40468;42.128;24.750;2022-10-19T06:53:37;100060.44;;;27.50;21.43
32875;BME280;40468;42.128;24.750;2022-10-19T06:55:09;100053.34;;;27.65;21.11
32875;BME280;40468;42.128;24.750;2022-10-19T06:56:42;100052.13;;;27.84;20.96
32875;BME280;40468;42.128;24.750;2022-10-19T06:58:14;100052.00;;;28.31;21.66
32875;BME280;40468;42.128;24.750;2022-10-19T06:59:46;100049.47;;;28.61;21.01
32875;BME280;40468;42.128;24.750;2022-10-19T07:01:18;100045.22;;;29.05;20.54
32875;BME280;40468;42.128;24.750;2022-10-19T07:02:49;100049.22;;;29.53;20.01
32875;BME280;40468;42.128;24.750;2022-10-19T07:04:21;100048.34;;;29.97;19.46
32875;BME280;40468;42.128;24.750;2022-10-19T07:05:53;100046.59;;;30.26;19.29
32875;BME280;40468;42.128;24.750;2022-10-19T07:07:24;100042.31;;;30.31;18.98
32875;BME280;40468;42.128;24.750;2022-10-19T07:08:56;100048.16;;;30.35;18.65
32875;BME280;40468;42.128;24.750;2022-10-19T07:10:28;100048.72;;;30.52;18.54
32875;BME280;40468;42.128;24.750;2022-10-19T07:12:00;100051.28;;;30.60;18.19
32875;BME280;40468;42.128;24.750;2022-10-19T07:13:32;100039.28;;;30.84;18.05
32875;BME280;40468;42.128;24.750;2022-10-19T07:15:05;100039.59;;;30.96;18.09
32875;BME280;40468;42.128;24.750;2022-10-19T07:16:37;100040.22;;;30.98;18.19
32875;BME280;40468;42.128;24.750;2022-10-19T07:18:09;100035.84;;;31.25;17.98
32875;BME280;40468;42.128;24.750;2022-10-19T07:19:41;100042.69;;;31.62;17.77
32875;BME280;40468;42.128;24.750;2022-10-19T07:21:14;100040.09;;;31.89;17.42
32875;BME280;40468;42.128;24.750;2022-10-19T07:22:46;100040.78;;;31.98;17.14
32875;BME280;40468;42.128;24.750;2022-10-19T07:24:18;100036.00;;;31.93;17.16
32875;BME280;40468;42.128;24.750;2022-10-19T07:25:50;100036.41;;;31.97;17.14
32875;BME280;40468;42.128;24.750;2022-10-19T07:27:25;100038.16;;;32.24;17.34
32875;BME280;40468;42.128;24.750;2022-10-19T07:28:57;100029.25;;;32.44;17.02
32875;BME280;40468;42.128;24.750;2022-10-19T07:30:29;100033.63;;;32.58;16.85
32875;BME280;40468;42.128;24.750;2022-10-19T07:32:01;100025.13;;;32.74;16.43
32875;BME280;40468;42.128;24.750;2022-10-19T07:33:33;100019.50;;;32.62;16.39
32875;BME280;40468;42.128;24.750;2022-10-19T07:35:05;100013.91;;;32.24;16.54
32875;BME280;40468;42.128;24.750;2022-10-19T07:36:37;100010.75;;;32.07;16.68
32875;BME280;40468;42.128;24.750;2022-10-19T07:38:09;100007.88;;;32.22;16.88
32875;BME280;40468;42.128;24.750;2022-10-19T07:39:41;100008.28;;;32.32;16.44
32875;BME280;40468;42.128;24.750;2022-10-19T07:41:14;100008.31;;;32.39;16.63
32875;BME280;40468;42.128;24.750;2022-10-19T07:42:48;100013.31;;;32.62;16.59
32875;BME280;40468;42.128;24.750;2022-10-19T07:44:20;100007.06;;;32.81;16.23
32875;BME280;40468;42.128;24.750;2022-10-19T07:45:56;99999.16;;;32.93;16.40
32875;BME280;40468;42.128;24.750;2022-10-19T07:47:28;100004.38;;;33.01;16.08
32875;BME280;40468;42.128;24.750;2022-10-19T07:49:00;100011.59;;;33.14;16.08
32875;BME280;40468;42.128;24.750;2022-10-19T07:50:32;99999.38;;;33.12;15.94
32875;BME280;40468;42.128;24.750;2022-10-19T07:52:04;100004.13;;;33.16;16.13
32875;BME280;40468;42.128;24.750;2022-10-19T07:53:36;99995.63;;;33.19;15.83
32875;BME280;40468;42.128;24.750;2022-10-19T07:55:08;99995.63;;;33.19;16.10
32875;BME280;40468;42.128;24.750;2022-10-19T07:56:40;99993.50;;;33.21;15.98
32875;BME280;40468;42.128;24.750;2022-10-19T07:58:13;99989.41;;;33.05;15.75
32875;BME280;40468;42.128;24.750;2022-10-19T07:59:45;99989.66;;;32.84;16.47
32875;BME280;40468;42.128;24.750;2022-10-19T08:01:18;99991.31;;;32.58;16.04
32875;BME280;40468;42.128;24.750;2022-10-19T08:02:51;99991.50;;;32.24;16.54
32875;BME280;40468;42.128;24.750;2022-10-19T08:04:23;99983.59;;;32.09;16.43
32875;BME280;40468;42.128;24.750;2022-10-19T08:05:59;99976.56;;;32.01;16.38
32875;BME280;40468;42.128;24.750;2022-10-19T08:07:32;99989.94;;;31.81;16.55